SWA570 KRNO-KMKE
Flight info
| Callsign | SWA570 |
|---|---|
| Flight time | N/A |
| Altitude | 37000 |
| Route | ALPYN1 ALPYN MACUS Q122 KURSE/N0445F390 Q122 VIGGR OGECA GOPAC3 |
| Aircraft | B38M/M-SDE1FGHILORVWXY/HB1 |
Departure
| Time | 2026-05-09 04:37 |
|---|---|
| Airport | Reno Tahoe International Airport (KRNO) |
Arrival
| Time | N/A |
|---|---|
| Airport | General Mitchell International Airport (KMKE) |
| Time | Latitude | Longitude | Altitude | Speed | Heading |
|---|---|---|---|---|---|
| 2026-05-09 03:59 | 39.50649 | -119.77419 | 4421 ft | 0 kts | 359° |
| 2026-05-09 04:22 | 39.50632 | -119.77419 | 4421 ft | 3 kts | 359° |
| 2026-05-09 04:22 | 39.50614 | -119.77419 | 4421 ft | 3 kts | 359° |
| 2026-05-09 04:22 | 39.50597 | -119.77425 | 4421 ft | 0 kts | 58° |
| 2026-05-09 04:27 | 39.50598 | -119.77423 | 4421 ft | 2 kts | 58° |
| 2026-05-09 04:27 | 39.50605 | -119.77409 | 4423 ft | 2 kts | 62° |
| 2026-05-09 04:27 | 39.50608 | -119.77366 | 4421 ft | 9 kts | 90° |
| 2026-05-09 04:27 | 39.50606 | -119.77271 | 4421 ft | 11 kts | 91° |
| 2026-05-09 04:28 | 39.50598 | -119.77184 | 4421 ft | 8 kts | 109° |
| 2026-05-09 04:28 | 39.50553 | -119.77154 | 4423 ft | 8 kts | 175° |
| 2026-05-09 04:28 | 39.50480 | -119.77156 | 4421 ft | 16 kts | 181° |
| 2026-05-09 04:28 | 39.50347 | -119.77154 | 4420 ft | 20 kts | 179° |
| 2026-05-09 04:29 | 39.50207 | -119.77151 | 4420 ft | 20 kts | 180° |
| 2026-05-09 04:29 | 39.50062 | -119.77155 | 4419 ft | 21 kts | 180° |
| 2026-05-09 04:29 | 39.49915 | -119.77153 | 4419 ft | 21 kts | 179° |
| 2026-05-09 04:29 | 39.49764 | -119.77150 | 4418 ft | 22 kts | 180° |
| 2026-05-09 04:30 | 39.49608 | -119.77154 | 4417 ft | 22 kts | 181° |
| 2026-05-09 04:30 | 39.49452 | -119.77159 | 4418 ft | 22 kts | 179° |
| 2026-05-09 04:30 | 39.49296 | -119.77153 | 4419 ft | 22 kts | 179° |
| 2026-05-09 04:30 | 39.49142 | -119.77153 | 4418 ft | 22 kts | 180° |
| 2026-05-09 04:31 | 39.48986 | -119.77157 | 4419 ft | 20 kts | 182° |
| 2026-05-09 04:31 | 39.48880 | -119.77163 | 4418 ft | 15 kts | 183° |
| 2026-05-09 04:31 | 39.48771 | -119.77168 | 4418 ft | 16 kts | 179° |
| 2026-05-09 04:31 | 39.48696 | -119.77166 | 4418 ft | 5 kts | 178° |
| 2026-05-09 04:32 | 39.48688 | -119.77165 | 4418 ft | 1 kts | 179° |
| 2026-05-09 04:32 | 39.48686 | -119.77165 | 4418 ft | 0 kts | 179° |
| 2026-05-09 04:32 | 39.48662 | -119.77173 | 4418 ft | 8 kts | 175° |
| 2026-05-09 04:32 | 39.48693 | -119.77140 | 4418 ft | 15 kts | 338° |
| 2026-05-09 04:33 | 39.48813 | -119.77153 | 4419 ft | 16 kts | 1° |
| 2026-05-09 04:33 | 39.48896 | -119.77148 | 4420 ft | 10 kts | 15° |
| 2026-05-09 04:33 | 39.48922 | -119.77066 | 4418 ft | 11 kts | 84° |
| 2026-05-09 04:33 | 39.48924 | -119.76962 | 4419 ft | 12 kts | 90° |
| 2026-05-09 04:34 | 39.48923 | -119.76869 | 4417 ft | 1 kts | 89° |
| 2026-05-09 04:35 | 39.48924 | -119.76833 | 4416 ft | 12 kts | 88° |
| 2026-05-09 04:35 | 39.48926 | -119.76744 | 4414 ft | 14 kts | 85° |
| 2026-05-09 04:36 | 39.48971 | -119.76687 | 4414 ft | 15 kts | 16° |
| 2026-05-09 04:36 | 39.48994 | -119.76683 | 4414 ft | 0 kts | 6° |
| 2026-05-09 04:36 | 39.49073 | -119.76678 | 4416 ft | 36 kts | 1° |
| 2026-05-09 04:36 | 39.49646 | -119.76683 | 4420 ft | 129 kts | 360° |
| 2026-05-09 04:37 | 39.50805 | -119.76681 | 4795 ft | 178 kts | 358° |
| 2026-05-09 04:37 | 39.52462 | -119.76618 | 6619 ft | 186 kts | 359° |
| 2026-05-09 04:37 | 39.53356 | -119.76601 | 7464 ft | 195 kts | 359° |
| 2026-05-09 04:37 | 39.54755 | -119.76611 | 8717 ft | 206 kts | 358° |
| 2026-05-09 04:38 | 39.56228 | -119.76626 | 9833 ft | 228 kts | 358° |
| 2026-05-09 04:38 | 39.57980 | -119.76530 | 10118 ft | 287 kts | 12° |
| 2026-05-09 04:38 | 39.59853 | -119.75115 | 10573 ft | 332 kts | 46° |
| 2026-05-09 04:38 | 39.60932 | -119.72491 | 12130 ft | 332 kts | 73° |
| 2026-05-09 04:39 | 39.60992 | -119.69525 | 13442 ft | 331 kts | 99° |
| 2026-05-09 04:39 | 39.60529 | -119.66621 | 14697 ft | 327 kts | 101° |
| 2026-05-09 04:39 | 39.60228 | -119.63736 | 15921 ft | 320 kts | 88° |
| 2026-05-09 04:39 | 39.60576 | -119.60936 | 17034 ft | 313 kts | 70° |
| 2026-05-09 04:40 | 39.61435 | -119.58300 | 17704 ft | 322 kts | 63° |
| 2026-05-09 04:40 | 39.62277 | -119.55530 | 18199 ft | 338 kts | 70° |
| 2026-05-09 04:40 | 39.63027 | -119.52568 | 18701 ft | 351 kts | 71° |
| 2026-05-09 04:40 | 39.63761 | -119.49504 | 19376 ft | 359 kts | 71° |
| 2026-05-09 04:41 | 39.64490 | -119.46387 | 20112 ft | 363 kts | 71° |
| 2026-05-09 04:41 | 39.65233 | -119.43228 | 20763 ft | 369 kts | 71° |
| 2026-05-09 04:41 | 39.65995 | -119.40030 | 21451 ft | 373 kts | 71° |
| 2026-05-09 04:41 | 39.66774 | -119.36794 | 22116 ft | 378 kts | 71° |
| 2026-05-09 04:42 | 39.67562 | -119.33512 | 22752 ft | 384 kts | 71° |
| 2026-05-09 04:42 | 39.68348 | -119.30219 | 23366 ft | 389 kts | 71° |
| 2026-05-09 04:42 | 39.69151 | -119.26838 | 23989 ft | 395 kts | 71° |
| 2026-05-09 04:42 | 39.69964 | -119.23407 | 24622 ft | 399 kts | 71° |
| 2026-05-09 04:43 | 39.70786 | -119.19935 | 25248 ft | 404 kts | 70° |
| 2026-05-09 04:43 | 39.71617 | -119.16430 | 25894 ft | 408 kts | 70° |
| 2026-05-09 04:43 | 39.72455 | -119.12892 | 26475 ft | 412 kts | 70° |
| 2026-05-09 04:43 | 39.73300 | -119.09314 | 27048 ft | 416 kts | 70° |
| 2026-05-09 04:44 | 39.74151 | -119.05700 | 27607 ft | 420 kts | 69° |
| 2026-05-09 04:44 | 39.75010 | -119.02048 | 28138 ft | 424 kts | 69° |
| 2026-05-09 04:44 | 39.75875 | -118.98364 | 28675 ft | 428 kts | 69° |
| 2026-05-09 04:44 | 39.76749 | -118.94645 | 29188 ft | 432 kts | 69° |
| 2026-05-09 04:45 | 39.77628 | -118.90892 | 29701 ft | 436 kts | 68° |
| 2026-05-09 04:45 | 39.78515 | -118.87098 | 30177 ft | 440 kts | 68° |
| 2026-05-09 04:45 | 39.79407 | -118.83277 | 30644 ft | 444 kts | 68° |
| 2026-05-09 04:45 | 39.80305 | -118.79425 | 31098 ft | 448 kts | 68° |
| 2026-05-09 04:46 | 39.81211 | -118.75525 | 31561 ft | 451 kts | 68° |
| 2026-05-09 04:46 | 39.82121 | -118.71602 | 32017 ft | 455 kts | 68° |
| 2026-05-09 04:46 | 39.83038 | -118.67650 | 32459 ft | 458 kts | 68° |
| 2026-05-09 04:46 | 39.83960 | -118.63674 | 32875 ft | 461 kts | 68° |
| 2026-05-09 04:47 | 39.84890 | -118.59655 | 33272 ft | 465 kts | 68° |
| 2026-05-09 04:47 | 39.85812 | -118.55658 | 33659 ft | 468 kts | 68° |
| 2026-05-09 04:47 | 39.86750 | -118.51583 | 34053 ft | 471 kts | 68° |
| 2026-05-09 04:47 | 39.87691 | -118.47483 | 34430 ft | 474 kts | 68° |
| 2026-05-09 04:48 | 39.88638 | -118.43355 | 34806 ft | 478 kts | 68° |
| 2026-05-09 04:48 | 39.89591 | -118.39190 | 35166 ft | 481 kts | 68° |
| 2026-05-09 04:48 | 39.90548 | -118.34997 | 35526 ft | 484 kts | 69° |
| 2026-05-09 04:48 | 39.91513 | -118.30770 | 35861 ft | 487 kts | 69° |
| 2026-05-09 04:49 | 39.92481 | -118.26521 | 36212 ft | 490 kts | 69° |
| 2026-05-09 04:49 | 39.93451 | -118.22252 | 36533 ft | 493 kts | 69° |
| 2026-05-09 04:49 | 39.94427 | -118.17944 | 36851 ft | 496 kts | 69° |
| 2026-05-09 04:49 | 39.95394 | -118.13675 | 37105 ft | 501 kts | 69° |
| 2026-05-09 04:50 | 39.96384 | -118.09302 | 37112 ft | 504 kts | 69° |
| 2026-05-09 04:50 | 39.97360 | -118.04960 | 37122 ft | 493 kts | 69° |
| 2026-05-09 04:50 | 39.98313 | -118.00700 | 37120 ft | 488 kts | 69° |
| 2026-05-09 04:51 | 40.00234 | -117.92178 | 37120 ft | 491 kts | 69° |
| 2026-05-09 04:51 | 40.02147 | -117.83626 | 37117 ft | 490 kts | 69° |
| 2026-05-09 04:52 | 40.04043 | -117.75095 | 37128 ft | 491 kts | 69° |
| 2026-05-09 04:52 | 40.05949 | -117.66522 | 37139 ft | 491 kts | 69° |
| 2026-05-09 04:53 | 40.07845 | -117.57937 | 37154 ft | 492 kts | 70° |
| 2026-05-09 04:53 | 40.09723 | -117.49406 | 37164 ft | 492 kts | 70° |
| 2026-05-09 04:54 | 40.11611 | -117.40795 | 37167 ft | 492 kts | 70° |
| 2026-05-09 04:54 | 40.13486 | -117.32216 | 37158 ft | 491 kts | 70° |
| 2026-05-09 04:55 | 40.15355 | -117.23623 | 37150 ft | 490 kts | 70° |
| 2026-05-09 04:55 | 40.17216 | -117.15042 | 37155 ft | 491 kts | 70° |
| 2026-05-09 04:56 | 40.19069 | -117.06451 | 37168 ft | 491 kts | 70° |
| 2026-05-09 04:56 | 40.20918 | -116.97849 | 37169 ft | 491 kts | 70° |
| 2026-05-09 04:57 | 40.22749 | -116.89299 | 37151 ft | 489 kts | 70° |
| 2026-05-09 04:57 | 40.24581 | -116.80717 | 37151 ft | 490 kts | 70° |
| 2026-05-09 04:58 | 40.26408 | -116.72119 | 37150 ft | 489 kts | 70° |
| 2026-05-09 04:58 | 40.28224 | -116.63533 | 37149 ft | 489 kts | 71° |
| 2026-05-09 04:59 | 40.30029 | -116.54962 | 37150 ft | 487 kts | 71° |
| 2026-05-09 04:59 | 40.31829 | -116.46388 | 37166 ft | 488 kts | 71° |
| 2026-05-09 05:00 | 40.33614 | -116.37849 | 37177 ft | 489 kts | 71° |
| 2026-05-09 05:00 | 40.35404 | -116.29252 | 37187 ft | 488 kts | 71° |
| 2026-05-09 05:01 | 40.37186 | -116.20659 | 37168 ft | 489 kts | 71° |
| 2026-05-09 05:01 | 40.38961 | -116.12060 | 37163 ft | 488 kts | 71° |
| 2026-05-09 05:02 | 40.40731 | -116.03452 | 37174 ft | 488 kts | 71° |
| 2026-05-09 05:02 | 40.42498 | -115.94835 | 37160 ft | 488 kts | 71° |
| 2026-05-09 05:03 | 40.44236 | -115.86303 | 37152 ft | 487 kts | 71° |
| 2026-05-09 05:03 | 40.45983 | -115.77704 | 37151 ft | 488 kts | 71° |
| 2026-05-09 05:04 | 40.47725 | -115.69089 | 37150 ft | 487 kts | 71° |
| 2026-05-09 05:04 | 40.49461 | -115.60473 | 37153 ft | 487 kts | 71° |
| 2026-05-09 05:05 | 40.51178 | -115.51912 | 37161 ft | 488 kts | 71° |
| 2026-05-09 05:05 | 40.52903 | -115.43278 | 37164 ft | 488 kts | 72° |
| 2026-05-09 05:06 | 40.54616 | -115.34657 | 37132 ft | 485 kts | 72° |
| 2026-05-09 05:06 | 40.56324 | -115.26041 | 37139 ft | 487 kts | 72° |
| 2026-05-09 05:07 | 40.58022 | -115.17423 | 37140 ft | 485 kts | 72° |
| 2026-05-09 05:07 | 40.59705 | -115.08861 | 37145 ft | 487 kts | 72° |
| 2026-05-09 05:08 | 40.61387 | -115.00248 | 37137 ft | 485 kts | 72° |
| 2026-05-09 05:08 | 40.63062 | -114.91644 | 37133 ft | 484 kts | 72° |
| 2026-05-09 05:09 | 40.64730 | -114.83043 | 37141 ft | 485 kts | 73° |
| 2026-05-09 05:09 | 40.66391 | -114.74430 | 37111 ft | 485 kts | 73° |
| 2026-05-09 05:10 | 40.68035 | -114.65888 | 37116 ft | 484 kts | 73° |
| 2026-05-09 05:10 | 40.69679 | -114.57290 | 37104 ft | 484 kts | 73° |
| 2026-05-09 05:11 | 40.71315 | -114.48697 | 37102 ft | 482 kts | 73° |
| 2026-05-09 05:11 | 40.72945 | -114.40104 | 37086 ft | 483 kts | 73° |
| 2026-05-09 05:12 | 40.74567 | -114.31515 | 37104 ft | 482 kts | 73° |
| 2026-05-09 05:12 | 40.76184 | -114.22916 | 37084 ft | 483 kts | 73° |
| 2026-05-09 05:13 | 40.77793 | -114.14315 | 37084 ft | 483 kts | 73° |
| 2026-05-09 05:13 | 40.79398 | -114.05703 | 37082 ft | 483 kts | 73° |
| 2026-05-09 05:14 | 40.80994 | -113.97098 | 37097 ft | 482 kts | 73° |
| 2026-05-09 05:14 | 40.82565 | -113.88592 | 37071 ft | 479 kts | 74° |
| 2026-05-09 05:15 | 40.84140 | -113.80024 | 37084 ft | 480 kts | 74° |
| 2026-05-09 05:15 | 40.85710 | -113.71445 | 37085 ft | 480 kts | 74° |
| 2026-05-09 05:16 | 40.87276 | -113.62860 | 37084 ft | 481 kts | 74° |
| 2026-05-09 05:16 | 40.88833 | -113.54261 | 37091 ft | 480 kts | 74° |
| 2026-05-09 05:17 | 40.90386 | -113.45663 | 37079 ft | 480 kts | 74° |
| 2026-05-09 05:17 | 40.91932 | -113.37061 | 37077 ft | 481 kts | 74° |
| 2026-05-09 05:18 | 40.93463 | -113.28500 | 37078 ft | 481 kts | 74° |
| 2026-05-09 05:18 | 40.94997 | -113.19884 | 37078 ft | 481 kts | 75° |
| 2026-05-09 05:19 | 40.96524 | -113.11268 | 37081 ft | 480 kts | 75° |
| 2026-05-09 05:19 | 40.98042 | -113.02663 | 37075 ft | 480 kts | 75° |
| 2026-05-09 05:20 | 40.99551 | -112.94067 | 37067 ft | 480 kts | 75° |
| 2026-05-09 05:20 | 41.01054 | -112.85468 | 37070 ft | 479 kts | 75° |
| 2026-05-09 05:21 | 41.02550 | -112.76866 | 37068 ft | 479 kts | 75° |
| 2026-05-09 05:21 | 41.04031 | -112.68314 | 37068 ft | 479 kts | 75° |
| 2026-05-09 05:22 | 41.05510 | -112.59724 | 37068 ft | 478 kts | 75° |
| 2026-05-09 05:22 | 41.06987 | -112.51115 | 37068 ft | 478 kts | 75° |
| 2026-05-09 05:23 | 41.08206 | -112.43969 | 37068 ft | 479 kts | 75° |
| 2026-05-09 05:23 | 41.09906 | -112.33960 | 37067 ft | 478 kts | 75° |
| 2026-05-09 05:24 | 41.11363 | -112.25347 | 37061 ft | 479 kts | 75° |
| 2026-05-09 05:24 | 41.12577 | -112.18122 | 37070 ft | 478 kts | 76° |
| 2026-05-09 05:25 | 41.14009 | -112.09583 | 37078 ft | 477 kts | 76° |
| 2026-05-09 05:25 | 41.16162 | -111.96648 | 37097 ft | 477 kts | 76° |
| 2026-05-09 05:26 | 41.17578 | -111.88088 | 37101 ft | 475 kts | 76° |
| 2026-05-09 05:26 | 41.18994 | -111.79501 | 37073 ft | 474 kts | 76° |
| 2026-05-09 05:27 | 41.20397 | -111.70927 | 37092 ft | 476 kts | 76° |
| 2026-05-09 05:27 | 41.21795 | -111.62354 | 37115 ft | 475 kts | 76° |
| 2026-05-09 05:28 | 41.23189 | -111.53766 | 37120 ft | 475 kts | 76° |
| 2026-05-09 05:28 | 41.24564 | -111.45242 | 37129 ft | 475 kts | 76° |
| 2026-05-09 05:29 | 41.25941 | -111.36659 | 37145 ft | 475 kts | 76° |
| 2026-05-09 05:29 | 41.27316 | -111.28069 | 37173 ft | 474 kts | 76° |
| 2026-05-09 05:30 | 41.28681 | -111.19477 | 37184 ft | 474 kts | 76° |
| 2026-05-09 05:30 | 41.30038 | -111.10894 | 37200 ft | 474 kts | 76° |
| 2026-05-09 05:31 | 41.31388 | -111.02311 | 37200 ft | 474 kts | 76° |
| 2026-05-09 05:31 | 41.32735 | -110.93725 | 37204 ft | 474 kts | 76° |
| 2026-05-09 05:32 | 41.34070 | -110.85145 | 37200 ft | 473 kts | 76° |
| 2026-05-09 05:32 | 41.35392 | -110.76611 | 37205 ft | 473 kts | 76° |
| 2026-05-09 05:33 | 41.36718 | -110.68014 | 37196 ft | 474 kts | 76° |
| 2026-05-09 05:33 | 41.38036 | -110.59421 | 37196 ft | 474 kts | 76° |
| 2026-05-09 05:34 | 41.39348 | -110.50815 | 37208 ft | 474 kts | 76° |
| 2026-05-09 05:34 | 41.40655 | -110.42210 | 37210 ft | 473 kts | 76° |
| 2026-05-09 05:35 | 41.41952 | -110.33612 | 37209 ft | 474 kts | 76° |
| 2026-05-09 05:35 | 41.43240 | -110.25015 | 37206 ft | 473 kts | 76° |
| 2026-05-09 05:36 | 41.44527 | -110.16408 | 37201 ft | 473 kts | 76° |
| 2026-05-09 05:36 | 41.45802 | -110.07836 | 37203 ft | 473 kts | 76° |
| 2026-05-09 05:37 | 41.47072 | -109.99222 | 37194 ft | 473 kts | 76° |
| 2026-05-09 05:37 | 41.48336 | -109.90616 | 37179 ft | 473 kts | 76° |
| 2026-05-09 05:38 | 41.49595 | -109.82009 | 37180 ft | 473 kts | 76° |
| 2026-05-09 05:38 | 41.50847 | -109.73384 | 37170 ft | 472 kts | 76° |
| 2026-05-09 05:39 | 41.52087 | -109.64814 | 37168 ft | 473 kts | 76° |
| 2026-05-09 05:39 | 41.53324 | -109.56190 | 37153 ft | 472 kts | 76° |
| 2026-05-09 05:40 | 41.54557 | -109.47574 | 37149 ft | 471 kts | 76° |
| 2026-05-09 05:40 | 41.55780 | -109.38957 | 37154 ft | 473 kts | 76° |
| 2026-05-09 05:41 | 41.56996 | -109.30347 | 37133 ft | 471 kts | 76° |
| 2026-05-09 05:41 | 41.58207 | -109.21737 | 37132 ft | 471 kts | 76° |
| 2026-05-09 05:42 | 41.59410 | -109.13131 | 37143 ft | 472 kts | 76° |
| 2026-05-09 05:42 | 41.60604 | -109.04526 | 37144 ft | 470 kts | 76° |
| 2026-05-09 05:43 | 41.61786 | -108.95965 | 37141 ft | 471 kts | 76° |
| 2026-05-09 05:43 | 41.62969 | -108.87351 | 37141 ft | 471 kts | 76° |
| 2026-05-09 05:44 | 41.64145 | -108.78735 | 37131 ft | 470 kts | 75° |
| 2026-05-09 05:44 | 41.65313 | -108.70131 | 37135 ft | 471 kts | 75° |
| 2026-05-09 05:45 | 41.66476 | -108.61509 | 37132 ft | 470 kts | 75° |
| 2026-05-09 05:45 | 41.67633 | -108.52884 | 37125 ft | 472 kts | 75° |
| 2026-05-09 05:46 | 41.68785 | -108.44245 | 37119 ft | 472 kts | 75° |
| 2026-05-09 05:46 | 41.69929 | -108.35609 | 37116 ft | 471 kts | 75° |
| 2026-05-09 05:47 | 41.71065 | -108.27000 | 37109 ft | 472 kts | 75° |
| 2026-05-09 05:47 | 41.72199 | -108.18332 | 37115 ft | 473 kts | 75° |
| 2026-05-09 05:48 | 41.73329 | -108.09656 | 37111 ft | 472 kts | 75° |
| 2026-05-09 05:48 | 41.74445 | -108.01031 | 37104 ft | 473 kts | 75° |
| 2026-05-09 05:49 | 41.75558 | -107.92349 | 37102 ft | 473 kts | 75° |
| 2026-05-09 05:49 | 41.76669 | -107.83674 | 37101 ft | 473 kts | 75° |
| 2026-05-09 05:50 | 41.77771 | -107.74987 | 37084 ft | 472 kts | 75° |
| 2026-05-09 05:50 | 41.78866 | -107.66305 | 37081 ft | 471 kts | 75° |
| 2026-05-09 05:51 | 41.79953 | -107.57642 | 37069 ft | 471 kts | 75° |
| 2026-05-09 05:51 | 41.81031 | -107.48992 | 37071 ft | 470 kts | 75° |
| 2026-05-09 05:52 | 41.82097 | -107.40378 | 37071 ft | 470 kts | 75° |
| 2026-05-09 05:52 | 41.83161 | -107.31727 | 37071 ft | 469 kts | 75° |
| 2026-05-09 05:53 | 41.84214 | -107.23103 | 37069 ft | 468 kts | 75° |
| 2026-05-09 05:53 | 41.85263 | -107.14480 | 37077 ft | 467 kts | 75° |
| 2026-05-09 05:54 | 41.86301 | -107.05864 | 37072 ft | 467 kts | 75° |
| 2026-05-09 05:54 | 41.87324 | -106.97323 | 37080 ft | 467 kts | 75° |
| 2026-05-09 05:55 | 41.88348 | -106.88732 | 37075 ft | 466 kts | 75° |
| 2026-05-09 05:55 | 41.89364 | -106.80143 | 37077 ft | 465 kts | 75° |
| 2026-05-09 05:56 | 41.90372 | -106.71567 | 37068 ft | 465 kts | 75° |
| 2026-05-09 05:56 | 41.91371 | -106.63002 | 37077 ft | 465 kts | 75° |
| 2026-05-09 05:57 | 41.92366 | -106.54426 | 37078 ft | 464 kts | 75° |
| 2026-05-09 05:57 | 41.93351 | -106.45855 | 37077 ft | 464 kts | 75° |
| 2026-05-09 05:58 | 41.94335 | -106.37276 | 37066 ft | 465 kts | 75° |
| 2026-05-09 05:58 | 41.95307 | -106.28719 | 37061 ft | 464 kts | 75° |
| 2026-05-09 05:59 | 41.96273 | -106.20146 | 37056 ft | 464 kts | 75° |
| 2026-05-09 05:59 | 41.97234 | -106.11567 | 37053 ft | 464 kts | 75° |
| 2026-05-09 06:00 | 41.98191 | -106.02982 | 37045 ft | 464 kts | 75° |
| 2026-05-09 06:00 | 41.99133 | -105.94454 | 37045 ft | 464 kts | 75° |
| 2026-05-09 06:01 | 42.00075 | -105.85863 | 37047 ft | 465 kts | 75° |
| 2026-05-09 06:01 | 42.01012 | -105.77265 | 37039 ft | 464 kts | 75° |
| 2026-05-09 06:02 | 42.01942 | -105.68662 | 37040 ft | 465 kts | 75° |
| 2026-05-09 06:02 | 42.02869 | -105.60049 | 37016 ft | 465 kts | 75° |
| 2026-05-09 06:03 | 42.03785 | -105.51441 | 37011 ft | 466 kts | 75° |
| 2026-05-09 06:03 | 42.04698 | -105.42816 | 37012 ft | 466 kts | 75° |
| 2026-05-09 06:04 | 42.05606 | -105.34175 | 37001 ft | 466 kts | 75° |
| 2026-05-09 06:04 | 42.06508 | -105.25520 | 36989 ft | 467 kts | 75° |
| 2026-05-09 06:05 | 42.07403 | -105.16864 | 36990 ft | 467 kts | 75° |
| 2026-05-09 06:05 | 42.08218 | -105.08242 | 36989 ft | 467 kts | 76° |
| 2026-05-09 06:06 | 42.08948 | -104.99527 | 36993 ft | 469 kts | 76° |
| 2026-05-09 06:06 | 42.09718 | -104.90824 | 36990 ft | 466 kts | 76° |
| 2026-05-09 06:07 | 42.10488 | -104.82139 | 36993 ft | 467 kts | 76° |
| 2026-05-09 06:07 | 42.11105 | -104.74904 | 36994 ft | 466 kts | 76° |
| 2026-05-09 06:08 | 42.11846 | -104.66223 | 36984 ft | 467 kts | 76° |
| 2026-05-09 06:08 | 42.12589 | -104.57538 | 36984 ft | 467 kts | 76° |
| 2026-05-09 06:09 | 42.13319 | -104.48853 | 36983 ft | 465 kts | 76° |
| 2026-05-09 06:09 | 42.14037 | -104.40228 | 36981 ft | 466 kts | 76° |
| 2026-05-09 06:10 | 42.14755 | -104.31549 | 36971 ft | 466 kts | 76° |
| 2026-05-09 06:10 | 42.15465 | -104.22865 | 36965 ft | 465 kts | 76° |
| 2026-05-09 06:11 | 42.16167 | -104.14206 | 36972 ft | 465 kts | 76° |
| 2026-05-09 06:11 | 42.16866 | -104.05520 | 36965 ft | 464 kts | 76° |
| 2026-05-09 06:12 | 42.17551 | -103.96891 | 36967 ft | 465 kts | 76° |
| 2026-05-09 06:12 | 42.18237 | -103.88189 | 36966 ft | 467 kts | 77° |
| 2026-05-09 06:13 | 42.18935 | -103.79326 | 36974 ft | 482 kts | 78° |
| 2026-05-09 06:13 | 42.19618 | -103.70347 | 36965 ft | 476 kts | 78° |
| 2026-05-09 06:14 | 42.20297 | -103.61451 | 36969 ft | 478 kts | 78° |
| 2026-05-09 06:14 | 42.20970 | -103.52617 | 36960 ft | 476 kts | 78° |
| 2026-05-09 06:15 | 42.21634 | -103.43717 | 36957 ft | 477 kts | 78° |
| 2026-05-09 06:15 | 42.22293 | -103.34807 | 36957 ft | 478 kts | 78° |
| 2026-05-09 06:16 | 42.22945 | -103.25896 | 36958 ft | 477 kts | 78° |
| 2026-05-09 06:16 | 42.23592 | -103.16981 | 36956 ft | 477 kts | 78° |
| 2026-05-09 06:17 | 42.24234 | -103.08041 | 36956 ft | 478 kts | 78° |
| 2026-05-09 06:17 | 42.24865 | -102.99112 | 36948 ft | 477 kts | 78° |
| 2026-05-09 06:18 | 42.25490 | -102.90187 | 36950 ft | 478 kts | 78° |
| 2026-05-09 06:18 | 42.26106 | -102.81323 | 36948 ft | 477 kts | 77° |
| 2026-05-09 06:19 | 42.26716 | -102.72402 | 36948 ft | 476 kts | 77° |
| 2026-05-09 06:19 | 42.27320 | -102.63485 | 36951 ft | 476 kts | 77° |
| 2026-05-09 06:20 | 42.27916 | -102.54579 | 36949 ft | 476 kts | 77° |
| 2026-05-09 06:20 | 42.28504 | -102.45682 | 36951 ft | 474 kts | 77° |
| 2026-05-09 06:21 | 42.29083 | -102.36850 | 36951 ft | 475 kts | 77° |
| 2026-05-09 06:21 | 42.29658 | -102.27944 | 36950 ft | 476 kts | 77° |
| 2026-05-09 06:22 | 42.30226 | -102.19040 | 36944 ft | 476 kts | 77° |
| 2026-05-09 06:22 | 42.30786 | -102.10138 | 36940 ft | 474 kts | 77° |
| 2026-05-09 06:23 | 42.31340 | -102.01259 | 36944 ft | 475 kts | 77° |
| 2026-05-09 06:23 | 42.31886 | -101.92368 | 36936 ft | 475 kts | 77° |
| 2026-05-09 06:24 | 42.32425 | -101.83454 | 36929 ft | 475 kts | 77° |
| 2026-05-09 06:24 | 42.32957 | -101.74600 | 36935 ft | 476 kts | 78° |
| 2026-05-09 06:25 | 42.33485 | -101.65679 | 36934 ft | 476 kts | 77° |
| 2026-05-09 06:25 | 42.34006 | -101.56745 | 36942 ft | 476 kts | 78° |
| 2026-05-09 06:26 | 42.34519 | -101.47807 | 36931 ft | 477 kts | 77° |
| 2026-05-09 06:26 | 42.35027 | -101.38857 | 36929 ft | 478 kts | 77° |
| 2026-05-09 06:27 | 42.35528 | -101.29912 | 36924 ft | 477 kts | 77° |
| 2026-05-09 06:27 | 42.36020 | -101.20995 | 36929 ft | 479 kts | 77° |
| 2026-05-09 06:28 | 42.36508 | -101.12020 | 36914 ft | 479 kts | 77° |
| 2026-05-09 06:28 | 42.36990 | -101.03018 | 36922 ft | 479 kts | 77° |
| 2026-05-09 06:29 | 42.37465 | -100.94031 | 36925 ft | 478 kts | 77° |
| 2026-05-09 06:29 | 42.37932 | -100.85052 | 36928 ft | 479 kts | 77° |
| 2026-05-09 06:30 | 42.38393 | -100.76046 | 36927 ft | 479 kts | 77° |
| 2026-05-09 06:30 | 42.38848 | -100.67041 | 36928 ft | 480 kts | 77° |
| 2026-05-09 06:31 | 42.39290 | -100.58108 | 36917 ft | 478 kts | 77° |
| 2026-05-09 06:31 | 42.39731 | -100.49111 | 36916 ft | 480 kts | 77° |
| 2026-05-09 06:32 | 42.40164 | -100.40098 | 36919 ft | 479 kts | 77° |
| 2026-05-09 06:33 | 42.40796 | -100.26606 | 36910 ft | 478 kts | 77° |
| 2026-05-09 06:33 | 42.41213 | -100.17658 | 36918 ft | 479 kts | 77° |
| 2026-05-09 06:34 | 42.41821 | -100.04163 | 36907 ft | 479 kts | 77° |
| 2026-05-09 06:34 | 42.42219 | -99.95157 | 36907 ft | 479 kts | 77° |
| 2026-05-09 06:35 | 42.42610 | -99.86151 | 36909 ft | 479 kts | 77° |
| 2026-05-09 06:35 | 42.42992 | -99.77126 | 36911 ft | 480 kts | 77° |
| 2026-05-09 06:36 | 42.43369 | -99.68106 | 36907 ft | 480 kts | 77° |
| 2026-05-09 06:36 | 42.43740 | -99.59097 | 36908 ft | 480 kts | 78° |
| 2026-05-09 06:37 | 42.44100 | -99.50122 | 36902 ft | 480 kts | 78° |
| 2026-05-09 06:37 | 42.44457 | -99.41066 | 36915 ft | 482 kts | 78° |
| 2026-05-09 06:38 | 42.44805 | -99.32014 | 36905 ft | 481 kts | 78° |
| 2026-05-09 06:38 | 42.45150 | -99.22949 | 36896 ft | 482 kts | 78° |
| 2026-05-09 06:39 | 42.45485 | -99.13884 | 36902 ft | 482 kts | 78° |
| 2026-05-09 06:39 | 42.45813 | -99.04806 | 36900 ft | 482 kts | 78° |
| 2026-05-09 06:40 | 42.46134 | -98.95793 | 36892 ft | 482 kts | 78° |
| 2026-05-09 06:40 | 42.46449 | -98.86701 | 36893 ft | 482 kts | 78° |
| 2026-05-09 06:41 | 42.46756 | -98.77622 | 36894 ft | 482 kts | 78° |
| 2026-05-09 06:41 | 42.47054 | -98.68551 | 36891 ft | 482 kts | 78° |
| 2026-05-09 06:42 | 42.47433 | -98.59504 | 36887 ft | 481 kts | 77° |
| 2026-05-09 06:42 | 42.47879 | -98.50453 | 36885 ft | 481 kts | 77° |
| 2026-05-09 06:43 | 42.48253 | -98.41445 | 36887 ft | 482 kts | 78° |